createdAt,value
2023-03-06T00:00:24.326Z,34.80
2023-03-06T00:03:55.288Z,35.90
2023-03-06T00:06:59.324Z,34.30
2023-03-06T00:10:03.964Z,30.50
2023-03-06T00:13:13.691Z,31.30
2023-03-06T00:16:17.661Z,34.40
2023-03-06T00:19:23.187Z,25.90
2023-03-06T00:22:27.509Z,29.30
2023-03-06T00:25:31.620Z,28.60
2023-03-06T00:28:36.589Z,25.30
2023-03-06T00:31:40.639Z,28.50
2023-03-06T00:34:49.019Z,28.00
2023-03-06T00:37:53.110Z,28.10
2023-03-06T00:40:57.091Z,28.00
2023-03-06T00:44:01.043Z,29.40
2023-03-06T00:47:05.264Z,25.00
2023-03-06T00:50:10.519Z,34.80
2023-03-06T00:53:14.622Z,31.10
2023-03-06T00:56:20.051Z,31.70
2023-03-06T00:59:25.093Z,35.70
2023-03-06T01:02:29.324Z,32.90
2023-03-06T01:05:36.215Z,37.20
2023-03-06T01:08:40.225Z,38.20
2023-03-06T01:11:44.225Z,34.00
2023-03-06T01:14:48.562Z,35.20
2023-03-06T01:17:56.528Z,29.50
2023-03-06T01:21:00.486Z,33.40
2023-03-06T01:24:04.672Z,35.20
2023-03-06T01:27:08.734Z,41.40
2023-03-06T01:30:13.454Z,44.00
2023-03-06T01:33:17.468Z,30.30
2023-03-06T01:36:21.468Z,29.60
2023-03-06T01:39:25.502Z,36.90
2023-03-06T01:42:31.363Z,32.90
2023-03-06T01:45:36.139Z,36.10
2023-03-06T01:48:40.429Z,35.10
2023-03-06T01:52:00.111Z,29.50
2023-03-06T01:55:10.001Z,30.80
2023-03-06T01:58:18.378Z,28.90
2023-03-06T02:01:22.682Z,35.30
2023-03-06T02:04:26.650Z,26.40
2023-03-06T02:07:31.502Z,31.40
2023-03-06T02:10:36.371Z,27.60
2023-03-06T02:13:41.767Z,47.30
2023-03-06T02:16:45.910Z,39.10
2023-03-06T02:20:10.309Z,37.10
2023-03-06T02:23:19.984Z,35.20
2023-03-06T02:26:26.851Z,40.70
2023-03-06T02:29:32.364Z,39.90
2023-03-06T02:32:38.518Z,38.60
2023-03-06T02:36:03.639Z,32.60
2023-03-06T02:39:08.013Z,28.00
2023-03-06T02:42:18.601Z,28.50
2023-03-06T02:45:45.305Z,29.50
2023-03-06T02:48:49.462Z,24.10
2023-03-06T02:51:53.575Z,27.40
2023-03-06T02:54:57.577Z,26.60
2023-03-06T02:58:02.584Z,23.50
2023-03-06T03:01:07.497Z,26.50
2023-03-06T03:04:12.030Z,34.00
2023-03-06T03:07:16.288Z,42.40
2023-03-06T03:10:21.207Z,32.80
2023-03-06T03:13:25.361Z,28.70
2023-03-06T03:16:29.719Z,26.30
2023-03-06T03:19:35.450Z,32.40
2023-03-06T03:22:39.877Z,28.50
2023-03-06T03:25:43.897Z,32.20
2023-03-06T03:28:48.149Z,26.30
2023-03-06T03:31:53.741Z,24.90
2023-03-06T03:35:01.664Z,24.30
2023-03-06T03:38:05.899Z,23.50
2023-03-06T03:41:10.223Z,17.70
2023-03-06T03:44:15.137Z,24.90
2023-03-06T03:47:19.658Z,22.80
2023-03-06T03:50:23.841Z,20.20
2023-03-06T03:53:27.900Z,20.60
2023-03-06T03:56:32.930Z,33.50
2023-03-06T03:59:46.371Z,33.60
2023-03-06T04:03:16.705Z,26.90
2023-03-06T04:06:22.464Z,26.40
2023-03-06T04:09:27.057Z,30.70
2023-03-06T04:12:31.323Z,32.00
2023-03-06T04:15:35.761Z,30.10
2023-03-06T04:18:40.187Z,26.50
2023-03-06T04:21:45.018Z,23.10
2023-03-06T04:24:50.003Z,26.90
2023-03-06T04:27:54.464Z,27.90
2023-03-06T04:30:58.808Z,24.30
2023-03-06T04:34:03.215Z,25.60
2023-03-06T04:37:14.125Z,21.30
2023-03-06T04:40:29.913Z,24.00
2023-03-06T04:43:34.129Z,23.50
2023-03-06T04:46:38.112Z,24.50
2023-03-06T04:49:42.164Z,42.20
2023-03-06T04:52:46.834Z,92.80
2023-03-06T04:55:50.741Z,82.80
2023-03-06T04:58:54.719Z,55.10
2023-03-06T05:01:58.710Z,43.60
2023-03-06T05:05:04.260Z,40.10
2023-03-06T05:08:11.049Z,38.10
2023-03-06T05:11:15.079Z,37.90
2023-03-06T05:14:19.238Z,28.20
2023-03-06T05:17:23.216Z,28.20
2023-03-06T05:20:28.875Z,30.10
2023-03-06T05:23:34.833Z,30.00
2023-03-06T05:26:38.764Z,26.60
2023-03-06T05:29:42.747Z,21.80
2023-03-06T05:32:46.796Z,16.40
2023-03-06T05:35:51.137Z,28.80
2023-03-06T05:38:55.271Z,21.40
2023-03-06T05:41:59.334Z,32.30
2023-03-06T05:45:04.577Z,42.70
2023-03-06T05:48:09.402Z,45.40
2023-03-06T05:51:13.356Z,34.20
2023-03-06T05:54:17.542Z,32.10
2023-03-06T05:57:24.128Z,25.80
2023-03-06T06:00:28.433Z,35.10
2023-03-06T06:03:32.421Z,24.80
2023-03-06T06:06:36.380Z,36.70
2023-03-06T06:09:40.688Z,31.60
2023-03-06T06:12:44.725Z,39.20
2023-03-06T06:15:48.773Z,31.50
2023-03-06T06:18:52.841Z,26.10
2023-03-06T06:21:57.476Z,28.20
2023-03-06T06:25:01.591Z,27.90
2023-03-06T06:28:06.132Z,28.60
2023-03-06T06:31:12.700Z,26.50
2023-03-06T06:34:17.119Z,50.30
2023-03-06T06:37:21.099Z,51.40
2023-03-06T06:40:27.722Z,45.10
2023-03-06T06:43:31.830Z,36.50
2023-03-06T06:47:20.786Z,41.50
2023-03-06T06:50:01.158Z,40.80
2023-03-06T06:53:05.682Z,35.30
2023-03-06T06:56:09.819Z,31.50
2023-03-06T06:59:17.199Z,30.50
2023-03-06T07:02:21.716Z,25.40
2023-03-06T07:05:25.764Z,27.60
2023-03-06T07:08:30.558Z,20.40
2023-03-06T07:14:39.643Z,17.60
2023-03-06T07:17:43.675Z,29.00
2023-03-06T07:20:47.859Z,21.60
2023-03-06T07:23:51.875Z,47.00
2023-03-06T07:26:55.821Z,39.40
2023-03-06T07:30:00.193Z,32.70
2023-03-06T07:33:04.358Z,34.30
2023-03-06T07:36:12.720Z,26.40
2023-03-06T07:39:17.108Z,31.20
2023-03-06T07:42:21.068Z,28.50
2023-03-06T07:45:31.066Z,26.80
2023-03-06T07:48:36.806Z,25.40
2023-03-06T07:51:40.839Z,24.50
2023-03-06T07:54:44.958Z,25.80
2023-03-06T07:57:50.818Z,27.80
2023-03-06T08:00:54.937Z,27.40
2023-03-06T08:04:01.183Z,25.20
2023-03-06T08:07:05.319Z,26.70
2023-03-06T08:10:10.260Z,33.70
2023-03-06T08:13:14.268Z,26.00
2023-03-06T08:16:21.196Z,28.50
2023-03-06T08:19:25.267Z,24.40
2023-03-06T08:22:29.282Z,25.50
2023-03-06T08:25:33.298Z,23.90
2023-03-06T08:28:37.521Z,24.50
2023-03-06T08:31:44.467Z,19.30
2023-03-06T08:34:48.526Z,21.10
2023-03-06T08:37:52.532Z,24.10
2023-03-06T08:40:56.554Z,16.40
2023-03-06T08:44:00.942Z,19.60
2023-03-06T08:47:05.055Z,19.70
2023-03-06T08:50:10.204Z,21.30
2023-03-06T08:53:14.421Z,20.20
2023-03-06T08:56:23.344Z,20.10
2023-03-06T08:59:27.714Z,22.20
2023-03-06T09:02:32.586Z,29.00
2023-03-06T09:05:37.148Z,24.20
2023-03-06T09:08:43.340Z,16.70
2023-03-06T09:11:47.363Z,18.50
2023-03-06T09:14:51.537Z,17.40
2023-03-06T09:17:55.577Z,19.20
2023-03-06T09:20:59.614Z,21.90
2023-03-06T09:24:03.715Z,23.40
2023-03-06T09:27:07.665Z,19.00
2023-03-06T09:30:12.555Z,20.80
2023-03-06T09:33:16.840Z,20.30
2023-03-06T09:36:23.069Z,25.20
2023-03-06T09:39:27.528Z,20.50
2023-03-06T09:45:37.352Z,23.40
2023-03-06T09:52:15.368Z,20.60
2023-03-06T09:55:27.343Z,20.30
2023-03-06T09:58:37.871Z,25.10
2023-03-06T10:01:46.293Z,17.10
2023-03-06T10:04:54.732Z,26.00
2023-03-06T10:08:06.550Z,18.60
2023-03-06T10:11:13.457Z,25.20
2023-03-06T10:14:20.584Z,26.60
2023-03-06T10:17:26.332Z,18.20
2023-03-06T10:20:41.096Z,21.50
2023-03-06T10:23:54.903Z,16.90
2023-03-06T10:27:01.906Z,18.80
2023-03-06T10:30:33.963Z,19.60
2023-03-06T10:34:15.154Z,20.20
2023-03-06T10:37:21.787Z,17.40
2023-03-06T10:40:36.140Z,18.30
2023-03-06T10:43:44.336Z,14.70
2023-03-06T10:46:51.653Z,20.20
2023-03-06T10:50:01.539Z,21.20
2023-03-06T10:53:07.662Z,23.00
2023-03-06T10:56:11.684Z,16.90
2023-03-06T10:59:25.546Z,15.60
2023-03-06T11:02:38.398Z,13.30
2023-03-06T11:05:55.468Z,15.40
2023-03-06T11:09:24.271Z,36.80
2023-03-06T11:12:39.861Z,11.10
2023-03-06T11:16:14.989Z,12.50
2023-03-06T11:19:28.122Z,14.80
2023-03-06T11:22:32.633Z,18.90
2023-03-06T11:25:53.400Z,17.20
2023-03-06T11:29:17.410Z,18.30
2023-03-06T11:32:36.805Z,14.30
2023-03-06T11:35:56.252Z,18.60
2023-03-06T11:39:04.646Z,18.10
2023-03-06T11:42:25.726Z,16.10
2023-03-06T11:45:46.470Z,13.90
2023-03-06T11:49:17.312Z,13.70
2023-03-06T11:52:32.570Z,16.00
2023-03-06T11:55:42.839Z,13.00
2023-03-06T11:59:33.113Z,14.00
2023-03-06T12:03:06.055Z,14.90
2023-03-06T12:06:48.862Z,13.80
2023-03-06T12:10:23.841Z,10.40
2023-03-06T12:13:50.147Z,19.10
2023-03-06T12:17:19.439Z,21.10
2023-03-06T12:20:55.076Z,27.50
2023-03-06T12:24:33.334Z,26.60
2023-03-06T12:27:55.649Z,14.80
2023-03-06T12:31:24.605Z,16.10
2023-03-06T12:34:58.858Z,23.80
2023-03-06T12:38:09.007Z,13.10
2023-03-06T12:41:24.839Z,17.50
2023-03-06T12:44:47.611Z,15.10
2023-03-06T12:47:56.607Z,16.30
2023-03-06T12:51:01.605Z,22.10
2023-03-06T12:54:06.882Z,23.20
2023-03-06T12:57:15.266Z,26.70
2023-03-06T13:00:34.706Z,20.70
2023-03-06T13:03:47.431Z,22.40
2023-03-06T13:07:10.710Z,21.70
2023-03-06T13:10:29.355Z,18.30
2023-03-06T13:13:45.870Z,24.10
2023-03-06T13:20:16.540Z,14.30
2023-03-06T13:23:29.638Z,19.40
2023-03-06T13:26:33.618Z,22.50
2023-03-06T13:29:37.600Z,25.30
2023-03-06T13:32:41.682Z,26.90
2023-03-06T13:35:55.597Z,37.90
2023-03-06T13:39:03.947Z,43.50
2023-03-06T13:42:28.079Z,34.40
2023-03-06T13:45:44.866Z,26.10
2023-03-06T13:49:02.845Z,30.40
2023-03-06T13:52:29.690Z,29.40
2023-03-06T13:55:58.461Z,33.10
2023-03-06T13:59:17.730Z,28.00
2023-03-06T14:02:39.882Z,36.50
2023-03-06T14:05:47.881Z,25.60
2023-03-06T14:08:52.262Z,26.40
2023-03-06T14:12:15.572Z,20.60
2023-03-06T14:15:31.927Z,31.30
2023-03-06T14:18:44.598Z,31.40
2023-03-06T14:21:54.814Z,29.20
2023-03-06T14:25:07.375Z,27.90
2023-03-06T14:28:26.445Z,27.60
2023-03-06T14:31:33.443Z,28.60
2023-03-06T14:34:41.255Z,39.30
2023-03-06T14:37:55.694Z,37.40
2023-03-06T14:41:00.012Z,36.20
2023-03-06T14:44:22.850Z,36.30
2023-03-06T14:47:37.219Z,34.70
2023-03-06T14:50:42.286Z,35.50
2023-03-06T14:53:49.082Z,35.30
2023-03-06T14:57:00.829Z,35.40
2023-03-06T15:00:07.003Z,28.70
2023-03-06T15:03:43.781Z,25.50
2023-03-06T15:06:48.040Z,58.60
2023-03-06T15:09:54.385Z,50.80
2023-03-06T15:13:21.112Z,48.70
2023-03-06T15:16:30.090Z,40.70
2023-03-06T15:19:40.647Z,41.40
2023-03-06T15:22:50.869Z,45.10
2023-03-06T15:25:58.427Z,43.80
2023-03-06T15:29:09.637Z,37.40
2023-03-06T15:32:35.725Z,35.10
2023-03-06T15:35:40.095Z,39.50
2023-03-06T15:38:46.426Z,34.00
2023-03-06T15:42:03.587Z,26.20
2023-03-06T15:45:19.527Z,29.40
2023-03-06T15:48:23.566Z,27.00
2023-03-06T15:51:27.483Z,25.90
2023-03-06T15:54:32.975Z,29.70
2023-03-06T15:57:38.245Z,27.80
2023-03-06T16:03:46.583Z,28.30
2023-03-06T16:06:50.623Z,37.00
2023-03-06T16:09:54.633Z,34.10
2023-03-06T16:13:04.550Z,34.10
2023-03-06T16:16:22.342Z,32.50
2023-03-06T16:19:27.821Z,34.40
2023-03-06T16:22:32.078Z,31.40
2023-03-06T16:25:42.122Z,31.90
2023-03-06T16:28:46.559Z,29.90
2023-03-06T16:31:51.555Z,32.30
2023-03-06T16:34:55.526Z,38.30
2023-03-06T16:38:00.185Z,29.80
2023-03-06T16:41:04.278Z,33.40
2023-03-06T16:44:10.152Z,32.60
2023-03-06T16:47:14.252Z,30.20
2023-03-06T16:50:28.924Z,33.40
2023-03-06T16:53:32.939Z,37.80
2023-03-06T16:56:36.953Z,36.30
2023-03-06T16:59:41.303Z,28.70
2023-03-06T17:02:48.707Z,40.10
2023-03-06T17:05:53.101Z,35.30
2023-03-06T17:08:58.251Z,36.70
2023-03-06T17:12:02.251Z,32.80
2023-03-06T17:15:07.157Z,38.50
2023-03-06T17:18:11.111Z,37.10
2023-03-06T17:21:18.191Z,47.50
2023-03-06T17:24:22.317Z,36.50
2023-03-06T17:27:26.319Z,34.80
2023-03-06T17:30:30.242Z,34.00
2023-03-06T17:33:34.258Z,46.50
2023-03-06T17:36:38.272Z,41.10
2023-03-06T17:39:42.287Z,44.50
2023-03-06T17:42:46.411Z,34.00
2023-03-06T17:45:50.348Z,34.60
2023-03-06T17:48:55.504Z,31.30
2023-03-06T17:52:01.127Z,24.80
2023-03-06T17:55:06.513Z,23.80
2023-03-06T17:58:12.350Z,19.70
2023-03-06T18:01:19.837Z,29.70
2023-03-06T18:04:24.448Z,30.60
2023-03-06T18:07:28.463Z,24.80
2023-03-06T18:10:32.484Z,27.00
2023-03-06T18:13:39.363Z,26.40
2023-03-06T18:16:43.592Z,29.20
2023-03-06T18:19:47.903Z,32.10
2023-03-06T18:22:52.031Z,33.60
2023-03-06T18:26:11.633Z,32.70
2023-03-06T18:29:15.667Z,39.90
2023-03-06T18:32:19.774Z,32.30
2023-03-06T18:35:23.922Z,32.80
2023-03-06T18:38:27.869Z,31.50
2023-03-06T18:41:32.159Z,33.20
2023-03-06T18:44:36.215Z,27.10
2023-03-06T18:47:41.030Z,27.10
2023-03-06T18:50:44.944Z,30.00
2023-03-06T18:53:49.072Z,26.80
2023-03-06T18:56:52.982Z,35.40
2023-03-06T18:59:57.004Z,40.50
2023-03-06T19:03:01.019Z,36.20
2023-03-06T19:06:08.034Z,38.40
2023-03-06T19:09:12.041Z,31.90
2023-03-06T19:12:16.975Z,33.60
2023-03-06T19:15:20.985Z,29.70
2023-03-06T19:18:26.689Z,29.80
2023-03-06T19:21:30.712Z,30.00
2023-03-06T19:24:34.817Z,34.70
2023-03-06T19:27:39.496Z,43.90
2023-03-06T19:33:49.369Z,52.60
2023-03-06T19:36:53.300Z,41.00
2023-03-06T19:40:01.422Z,34.70
2023-03-06T19:43:05.521Z,37.40
2023-03-06T19:46:13.979Z,36.20
2023-03-06T19:49:18.245Z,36.70
2023-03-06T19:52:24.632Z,38.40
2023-03-06T19:55:28.860Z,42.10
2023-03-06T19:58:33.184Z,51.10
2023-03-06T20:01:38.682Z,43.40
2023-03-06T20:04:42.686Z,50.10
2023-03-06T20:07:46.767Z,67.20
2023-03-06T20:10:50.661Z,60.70
2023-03-06T20:13:54.617Z,62.20
2023-03-06T20:16:58.540Z,55.60
2023-03-06T20:20:03.276Z,53.60
2023-03-06T20:23:07.220Z,42.90
2023-03-06T20:26:14.433Z,42.70
2023-03-06T20:29:18.432Z,44.80
2023-03-06T20:32:22.413Z,42.50
2023-03-06T20:35:26.457Z,41.60
2023-03-06T20:38:30.697Z,36.30
2023-03-06T20:41:35.936Z,46.70
2023-03-06T20:44:39.954Z,42.20
2023-03-06T20:47:47.135Z,33.60
2023-03-06T20:51:06.011Z,30.40
2023-03-06T20:54:13.095Z,32.50
2023-03-06T20:57:17.209Z,35.80
2023-03-06T21:00:21.417Z,32.10
2023-03-06T21:03:25.773Z,33.10
2023-03-06T21:06:30.476Z,24.20
2023-03-06T21:09:37.679Z,16.20
2023-03-06T21:12:41.696Z,17.90
2023-03-06T21:15:47.589Z,19.40
2023-03-06T21:18:54.547Z,20.20
2023-03-06T21:21:58.715Z,17.80
2023-03-06T21:25:02.781Z,15.10
2023-03-06T21:28:06.680Z,22.70
2023-03-06T21:31:12.535Z,19.60
2023-03-06T21:34:16.466Z,18.30
2023-03-06T21:37:20.387Z,17.80
2023-03-06T21:40:24.297Z,18.40
2023-03-06T21:43:28.320Z,17.90
2023-03-06T21:46:33.456Z,19.90
2023-03-06T21:49:37.470Z,19.00
2023-03-06T21:52:41.441Z,18.50
2023-03-06T21:55:45.402Z,17.00
2023-03-06T21:58:49.402Z,19.80
2023-03-06T22:01:53.338Z,27.30
2023-03-06T22:04:57.343Z,21.80
2023-03-06T22:08:01.330Z,20.10
2023-03-06T22:11:07.733Z,16.50
2023-03-06T22:14:11.744Z,21.00
2023-03-06T22:17:15.666Z,21.80
2023-03-06T22:20:19.549Z,24.70
2023-03-06T22:23:23.856Z,19.60
2023-03-06T22:26:29.270Z,20.70
2023-03-06T22:29:33.558Z,21.20
2023-03-06T22:32:37.607Z,25.20
2023-03-06T22:35:41.742Z,20.00
2023-03-06T22:38:47.220Z,22.70
2023-03-06T22:41:51.565Z,23.00
2023-03-06T22:44:55.578Z,22.10
2023-03-06T22:48:10.137Z,21.40
2023-03-06T22:51:20.481Z,23.10
2023-03-06T22:54:24.517Z,21.80
2023-03-06T22:57:29.973Z,21.50
2023-03-06T23:00:33.925Z,27.00
2023-03-06T23:03:39.449Z,29.10
2023-03-06T23:06:43.591Z,29.80
2023-03-06T23:09:47.670Z,26.30
2023-03-06T23:13:10.431Z,24.00
2023-03-06T23:19:56.467Z,26.40
2023-03-06T23:23:19.196Z,26.50
2023-03-06T23:26:29.105Z,29.40
2023-03-06T23:29:33.080Z,28.70
2023-03-06T23:32:37.171Z,32.30
2023-03-06T23:35:41.466Z,31.80
2023-03-06T23:38:46.679Z,25.40
2023-03-06T23:41:50.640Z,31.20
2023-03-06T23:44:55.007Z,32.60
2023-03-06T23:47:59.224Z,28.10
2023-03-06T23:51:15.548Z,32.70
2023-03-06T23:54:19.485Z,32.80
2023-03-06T23:57:23.449Z,30.90
